»·PEaware :: QXE2135 KYKM-KEAT

QXE2135 :: KYKM-KEAT

FLIGHT INFORMATION

Flight Status: Arrived
Operator:
Horizon Air
More flights by this operator :: More flights under this callsign
Pilot: Adlai G. (28854)
Aircraft: DEHAVILLAND DASH 8 400
(DH8D)
More flights by this aircraft type
Origin: KYKM Yakima Air Term/Mcallister
United States
Destination: KEAT Pangborn Meml
United States
More flights between these airports :: More routes between these airports
Route: +WENAS7 ELN EAT
File this flight plan on PilotEdge
Remarks: Continues as 2135 EAT-SEA
Altitude:
(Current/Filed)
12,000ft
Speed:
(Current/Filed)
330kts
Departed: 10-May-20 11:01 AM
Arrived: 10-May-20 11:20 AM
Distance/Time
Traveled:
52nm/0:19
Distance/Time
To Go:
Arrived

Flight Plot

Page will automatically refresh every two minutes.


Map Options




Map Legend


Flown Route
Filed Route
Departure Airport
Arrival Airport
Navaid (VOR, NDB)
Fix

Horizontal Profiles

Position Reports

Time Latitude Longitude Heading Altitude Ground
Speed
10-May-20 10:12 46.569861 -120.539494 0 1102ft 0kts
10-May-20 10:13 46.569861 -120.539494 0 1102ft 0kts
10-May-20 10:14 46.569861 -120.539494 0 1102ft 0kts
10-May-20 10:15 46.569861 -120.539494 0 1102ft 0kts
10-May-20 10:16 46.569861 -120.539494 0 1102ft 0kts
10-May-20 10:17 46.569861 -120.539494 0 1102ft 0kts
10-May-20 10:18 46.569861 -120.539494 0 1102ft 0kts
10-May-20 10:19 46.569861 -120.539494 0 1102ft 0kts
10-May-20 10:20 46.569861 -120.539494 0 1102ft 0kts
10-May-20 10:21 46.569861 -120.539494 0 1102ft 0kts
10-May-20 10:22 46.569861 -120.539494 0 1102ft 0kts
10-May-20 10:23 46.569861 -120.539494 0 1102ft 0kts
10-May-20 10:24 46.569861 -120.539494 0 1102ft 0kts
10-May-20 10:25 46.569861 -120.539494 0 1102ft 0kts
10-May-20 10:26 46.569861 -120.539494 0 1102ft 0kts
10-May-20 10:27 46.569861 -120.539494 0 1102ft 0kts
10-May-20 10:28 46.569861 -120.539494 0 1102ft 0kts
10-May-20 10:29 46.569861 -120.539494 0 1102ft 0kts
10-May-20 10:30 46.569861 -120.539494 0 1102ft 0kts
10-May-20 10:31 46.569861 -120.539494 0 1102ft 0kts
10-May-20 10:32 46.569861 -120.539494 0 1102ft 0kts
10-May-20 10:33 46.569861 -120.539494 0 1102ft 0kts
10-May-20 10:34 46.569861 -120.539494 0 1102ft 0kts
10-May-20 10:35 46.569861 -120.539494 0 1102ft 0kts
10-May-20 10:36 46.569861 -120.539494 0 1102ft 0kts
10-May-20 10:37 46.569861 -120.539494 0 1102ft 0kts
10-May-20 10:38 46.569861 -120.539494 0 1102ft 0kts
10-May-20 10:39 46.569861 -120.539494 0 1102ft 0kts
10-May-20 10:40 46.569861 -120.539494 0 1102ft 0kts
10-May-20 10:41 46.569861 -120.539494 0 1102ft 0kts
10-May-20 10:42 46.569861 -120.539494 0 1102ft 0kts
10-May-20 10:43 46.569861 -120.539494 0 1102ft 0kts
10-May-20 10:44 46.569861 -120.539494 0 1102ft 0kts
10-May-20 10:45 46.569861 -120.539494 0 1102ft 0kts
10-May-20 10:46 46.569847 -120.539494 0 1102ft 1kts
10-May-20 10:47 46.569085 -120.539491 7 1102ft 2kts
10-May-20 10:48 46.568643 -120.539940 55 1102ft 0kts
10-May-20 10:49 46.568643 -120.539940 55 1102ft 0kts
10-May-20 10:50 46.568643 -120.539940 55 1102ft 0kts
10-May-20 10:51 46.568643 -120.539940 55 1102ft 0kts
10-May-20 10:52 46.568643 -120.539940 55 1102ft 0kts
10-May-20 10:53 46.568636 -120.539793 125 1102ft 0kts
10-May-20 10:54 46.567312 -120.535569 110 1102ft 12kts
10-May-20 10:55 46.566184 -120.531271 139 1102ft 5kts
10-May-20 10:56 46.566127 -120.531221 152 1102ft 0kts
10-May-20 10:57 46.566127 -120.531221 152 1102ft 0kts
10-May-20 10:58 46.566127 -120.531221 152 1102ft 0kts
10-May-20 10:59 46.565598 -120.531863 288 1102ft 2kts
10-May-20 11:00 46.572115 -120.563351 282 1831ft 161kts
10-May-20 11:01 46.577003 -120.643497 283 4343ft 220kts
10-May-20 11:02 46.621031 -120.669769 38 6812ft 235kts
10-May-20 11:03 46.668166 -120.602428 51 8996ft 246kts
10-May-20 11:04 46.709392 -120.514449 61 9936ft 280kts
10-May-20 11:05 46.742487 -120.409692 51 9989ft 290kts
10-May-20 11:06 46.815961 -120.400632 331 10010ft 293kts
10-May-20 11:07 46.892977 -120.437197 351 10007ft 292kts
10-May-20 11:08 46.973306 -120.451860 355 10007ft 291kts
10-May-20 11:09 47.052321 -120.440531 24 10017ft 289kts
10-May-20 11:10 47.125919 -120.391874 24 10463ft 295kts
10-May-20 11:11 47.201226 -120.342090 24 11467ft 298kts
10-May-20 11:13 47.275213 -120.288818 42 11670ft 292kts
10-May-20 11:14 47.284269 -120.180593 107 9074ft 272kts
10-May-20 11:15 47.262128 -120.076040 83 6335ft 256kts
10-May-20 11:16 47.310122 -120.049412 310 5156ft 233kts
10-May-20 11:17 47.342229 -120.121059 307 4064ft 171kts
10-May-20 11:18 47.368117 -120.162803 314 2327ft 124kts
10-May-20 11:19 47.393504 -120.199230 313 1325ft 124kts
10-May-20 11:20 47.400958 -120.208288 67 1256ft 4kts
10-May-20 11:21 47.402596 -120.209822 311 1256ft 5kts
10-May-20 11:22 47.402986 -120.209473 70 1256ft 11kts
10-May-20 11:23 47.402639 -120.207767 134 1256ft 0kts
10-May-20 11:24 47.402639 -120.207767 134 1256ft 0kts
10-May-20 11:25 47.402639 -120.207767 134 1256ft 0kts
10-May-20 11:26 47.402639 -120.207767 134 1256ft 0kts
10-May-20 11:27 47.402639 -120.207767 134 1256ft 0kts

Navigation Log

Ident Type
Flight plan parsing failed, navigation log unavailable